sensor_id;sensor_type;location;lat;lon;timestamp;P1;durP1;ratioP1;P2;durP2;ratioP2
22490;SDS011;11412;50.802;4.350;2022-10-31T00:00:17;11.98;;;6.60;;
22490;SDS011;11412;50.802;4.350;2022-10-31T00:02:43;14.45;;;7.40;;
22490;SDS011;11412;50.802;4.350;2022-10-31T00:05:09;12.77;;;6.38;;
22490;SDS011;11412;50.802;4.350;2022-10-31T00:07:35;9.00;;;6.35;;
22490;SDS011;11412;50.802;4.350;2022-10-31T00:10:00;13.80;;;7.28;;
22490;SDS011;11412;50.802;4.350;2022-10-31T00:12:26;11.75;;;6.50;;
22490;SDS011;11412;50.802;4.350;2022-10-31T00:14:51;7.88;;;6.60;;
22490;SDS011;11412;50.802;4.350;2022-10-31T00:17:17;10.80;;;6.53;;
22490;SDS011;11412;50.802;4.350;2022-10-31T00:19:43;11.15;;;6.40;;
22490;SDS011;11412;50.802;4.350;2022-10-31T00:22:08;9.30;;;5.97;;
22490;SDS011;11412;50.802;4.350;2022-10-31T00:24:34;13.98;;;6.30;;
22490;SDS011;11412;50.802;4.350;2022-10-31T00:27:00;11.88;;;6.00;;
22490;SDS011;11412;50.802;4.350;2022-10-31T00:29:25;8.25;;;5.65;;
22490;SDS011;11412;50.802;4.350;2022-10-31T00:31:51;8.30;;;5.38;;
22490;SDS011;11412;50.802;4.350;2022-10-31T00:34:18;13.32;;;6.75;;
22490;SDS011;11412;50.802;4.350;2022-10-31T00:36:43;10.43;;;6.35;;
22490;SDS011;11412;50.802;4.350;2022-10-31T00:39:09;7.25;;;5.60;;
22490;SDS011;11412;50.802;4.350;2022-10-31T00:41:34;14.27;;;7.00;;
22490;SDS011;11412;50.802;4.350;2022-10-31T00:44:00;12.50;;;6.32;;
22490;SDS011;11412;50.802;4.350;2022-10-31T00:46:26;9.23;;;6.13;;
22490;SDS011;11412;50.802;4.350;2022-10-31T00:48:51;12.70;;;5.75;;
22490;SDS011;11412;50.802;4.350;2022-10-31T00:51:17;7.60;;;5.00;;
22490;SDS011;11412;50.802;4.350;2022-10-31T00:53:43;11.00;;;6.10;;
22490;SDS011;11412;50.802;4.350;2022-10-31T00:56:09;7.55;;;5.38;;
22490;SDS011;11412;50.802;4.350;2022-10-31T00:58:34;8.20;;;6.18;;
22490;SDS011;11412;50.802;4.350;2022-10-31T01:01:00;8.27;;;5.78;;
22490;SDS011;11412;50.802;4.350;2022-10-31T01:03:27;10.43;;;5.53;;
22490;SDS011;11412;50.802;4.350;2022-10-31T01:06:07;10.10;;;6.20;;
22490;SDS011;11412;50.802;4.350;2022-10-31T01:08:36;8.60;;;5.30;;
22490;SDS011;11412;50.802;4.350;2022-10-31T01:13:28;11.80;;;5.43;;
22490;SDS011;11412;50.802;4.350;2022-10-31T01:15:54;10.13;;;5.93;;
22490;SDS011;11412;50.802;4.350;2022-10-31T01:18:22;7.45;;;5.25;;
22490;SDS011;11412;50.802;4.350;2022-10-31T01:20:56;9.02;;;5.15;;
22490;SDS011;11412;50.802;4.350;2022-10-31T01:23:23;8.18;;;4.85;;
22490;SDS011;11412;50.802;4.350;2022-10-31T01:25:49;12.32;;;6.38;;
22490;SDS011;11412;50.802;4.350;2022-10-31T01:28:14;8.40;;;5.90;;
22490;SDS011;11412;50.802;4.350;2022-10-31T01:30:40;9.35;;;5.70;;
22490;SDS011;11412;50.802;4.350;2022-10-31T01:33:05;9.15;;;5.90;;
22490;SDS011;11412;50.802;4.350;2022-10-31T01:35:31;9.85;;;5.95;;
22490;SDS011;11412;50.802;4.350;2022-10-31T01:37:56;11.60;;;6.47;;
22490;SDS011;11412;50.802;4.350;2022-10-31T01:40:22;9.95;;;5.72;;
22490;SDS011;11412;50.802;4.350;2022-10-31T01:42:48;9.50;;;5.40;;
22490;SDS011;11412;50.802;4.350;2022-10-31T01:45:13;14.07;;;6.32;;
22490;SDS011;11412;50.802;4.350;2022-10-31T01:47:41;11.90;;;6.03;;
22490;SDS011;11412;50.802;4.350;2022-10-31T01:50:26;9.27;;;6.00;;
22490;SDS011;11412;50.802;4.350;2022-10-31T01:52:55;12.65;;;6.10;;
22490;SDS011;11412;50.802;4.350;2022-10-31T01:55:32;7.72;;;5.10;;
22490;SDS011;11412;50.802;4.350;2022-10-31T01:58:09;7.50;;;5.45;;
22490;SDS011;11412;50.802;4.350;2022-10-31T02:00:38;7.35;;;4.85;;
22490;SDS011;11412;50.802;4.350;2022-10-31T02:03:07;11.23;;;5.93;;
22490;SDS011;11412;50.802;4.350;2022-10-31T02:05:32;6.85;;;5.05;;
22490;SDS011;11412;50.802;4.350;2022-10-31T02:08:09;9.70;;;4.82;;
22490;SDS011;11412;50.802;4.350;2022-10-31T02:10:46;7.10;;;5.50;;
22490;SDS011;11412;50.802;4.350;2022-10-31T02:13:12;10.45;;;5.63;;
22490;SDS011;11412;50.802;4.350;2022-10-31T02:15:38;9.13;;;5.57;;
22490;SDS011;11412;50.802;4.350;2022-10-31T02:18:05;9.88;;;5.45;;
22490;SDS011;11412;50.802;4.350;2022-10-31T02:21:18;8.63;;;5.47;;
22490;SDS011;11412;50.802;4.350;2022-10-31T02:29:01;6.90;;;5.38;;
22490;SDS011;11412;50.802;4.350;2022-10-31T02:34:09;6.10;;;5.50;;
22490;SDS011;11412;50.802;4.350;2022-10-31T02:37:01;10.17;;;6.17;;
22490;SDS011;11412;50.802;4.350;2022-10-31T02:39:37;6.75;;;5.28;;
22490;SDS011;11412;50.802;4.350;2022-10-31T02:42:16;7.80;;;5.10;;
22490;SDS011;11412;50.802;4.350;2022-10-31T02:44:55;10.50;;;5.97;;
22490;SDS011;11412;50.802;4.350;2022-10-31T02:47:28;7.90;;;4.95;;
22490;SDS011;11412;50.802;4.350;2022-10-31T02:52:33;9.60;;;5.47;;
22490;SDS011;11412;50.802;4.350;2022-10-31T02:55:09;7.78;;;4.75;;
22490;SDS011;11412;50.802;4.350;2022-10-31T02:57:37;8.82;;;5.63;;
22490;SDS011;11412;50.802;4.350;2022-10-31T03:00:06;8.40;;;5.53;;
22490;SDS011;11412;50.802;4.350;2022-10-31T03:03:19;9.10;;;5.30;;
22490;SDS011;11412;50.802;4.350;2022-10-31T03:08:14;7.35;;;5.82;;
22490;SDS011;11412;50.802;4.350;2022-10-31T03:10:56;13.55;;;5.63;;
22490;SDS011;11412;50.802;4.350;2022-10-31T03:21:30;8.90;;;5.78;;
22490;SDS011;11412;50.802;4.350;2022-10-31T03:24:09;7.72;;;6.22;;
22490;SDS011;11412;50.802;4.350;2022-10-31T03:26:37;7.88;;;5.82;;
22490;SDS011;11412;50.802;4.350;2022-10-31T03:29:06;7.28;;;6.05;;
22490;SDS011;11412;50.802;4.350;2022-10-31T03:31:57;7.05;;;5.95;;
22490;SDS011;11412;50.802;4.350;2022-10-31T03:34:31;14.90;;;6.57;;
22490;SDS011;11412;50.802;4.350;2022-10-31T03:36:58;8.95;;;5.88;;
22490;SDS011;11412;50.802;4.350;2022-10-31T03:39:28;9.88;;;6.45;;
22490;SDS011;11412;50.802;4.350;2022-10-31T03:42:05;8.35;;;5.55;;
22490;SDS011;11412;50.802;4.350;2022-10-31T03:44:33;8.48;;;6.22;;
22490;SDS011;11412;50.802;4.350;2022-10-31T03:47:00;10.02;;;6.15;;
22490;SDS011;11412;50.802;4.350;2022-10-31T03:49:28;10.55;;;5.32;;
22490;SDS011;11412;50.802;4.350;2022-10-31T03:51:57;11.52;;;6.03;;
22490;SDS011;11412;50.802;4.350;2022-10-31T03:54:35;9.05;;;5.70;;
22490;SDS011;11412;50.802;4.350;2022-10-31T03:57:10;14.20;;;5.40;;
22490;SDS011;11412;50.802;4.350;2022-10-31T03:59:51;8.57;;;5.60;;
22490;SDS011;11412;50.802;4.350;2022-10-31T04:02:21;8.70;;;5.53;;
22490;SDS011;11412;50.802;4.350;2022-10-31T04:04:50;14.32;;;6.15;;
22490;SDS011;11412;50.802;4.350;2022-10-31T04:07:17;10.85;;;6.30;;
22490;SDS011;11412;50.802;4.350;2022-10-31T04:09:46;8.73;;;5.70;;
22490;SDS011;11412;50.802;4.350;2022-10-31T04:12:13;8.85;;;5.80;;
22490;SDS011;11412;50.802;4.350;2022-10-31T04:14:42;8.63;;;6.07;;
22490;SDS011;11412;50.802;4.350;2022-10-31T04:17:11;11.23;;;6.22;;
22490;SDS011;11412;50.802;4.350;2022-10-31T04:19:41;9.07;;;5.82;;
22490;SDS011;11412;50.802;4.350;2022-10-31T04:22:06;7.80;;;5.50;;
22490;SDS011;11412;50.802;4.350;2022-10-31T04:24:32;8.77;;;5.75;;
22490;SDS011;11412;50.802;4.350;2022-10-31T04:26:58;9.52;;;5.35;;
22490;SDS011;11412;50.802;4.350;2022-10-31T04:29:23;8.10;;;5.68;;
22490;SDS011;11412;50.802;4.350;2022-10-31T04:31:49;12.55;;;6.50;;
22490;SDS011;11412;50.802;4.350;2022-10-31T04:34:15;9.57;;;6.53;;
22490;SDS011;11412;50.802;4.350;2022-10-31T04:36:40;8.82;;;6.07;;
22490;SDS011;11412;50.802;4.350;2022-10-31T04:39:06;7.07;;;5.60;;
22490;SDS011;11412;50.802;4.350;2022-10-31T04:41:31;9.20;;;5.80;;
22490;SDS011;11412;50.802;4.350;2022-10-31T04:43:57;6.93;;;5.30;;
22490;SDS011;11412;50.802;4.350;2022-10-31T04:46:23;11.77;;;5.90;;
22490;SDS011;11412;50.802;4.350;2022-10-31T04:48:48;6.57;;;5.25;;
22490;SDS011;11412;50.802;4.350;2022-10-31T04:51:14;7.75;;;5.88;;
22490;SDS011;11412;50.802;4.350;2022-10-31T04:53:39;6.80;;;5.68;;
22490;SDS011;11412;50.802;4.350;2022-10-31T04:56:05;7.68;;;6.55;;
22490;SDS011;11412;50.802;4.350;2022-10-31T04:58:31;15.48;;;6.82;;
22490;SDS011;11412;50.802;4.350;2022-10-31T05:00:57;12.48;;;7.18;;
22490;SDS011;11412;50.802;4.350;2022-10-31T05:03:22;13.98;;;6.28;;
22490;SDS011;11412;50.802;4.350;2022-10-31T05:05:48;9.30;;;6.60;;
22490;SDS011;11412;50.802;4.350;2022-10-31T05:08:14;12.50;;;6.57;;
22490;SDS011;11412;50.802;4.350;2022-10-31T05:10:40;9.82;;;6.63;;
22490;SDS011;11412;50.802;4.350;2022-10-31T05:13:06;12.65;;;6.70;;
22490;SDS011;11412;50.802;4.350;2022-10-31T05:15:32;9.50;;;6.57;;
22490;SDS011;11412;50.802;4.350;2022-10-31T05:17:58;9.82;;;6.28;;
22490;SDS011;11412;50.802;4.350;2022-10-31T05:20:26;8.80;;;6.93;;
22490;SDS011;11412;50.802;4.350;2022-10-31T05:22:53;13.07;;;6.47;;
22490;SDS011;11412;50.802;4.350;2022-10-31T05:25:21;8.98;;;6.93;;
22490;SDS011;11412;50.802;4.350;2022-10-31T05:27:49;8.40;;;6.80;;
22490;SDS011;11412;50.802;4.350;2022-10-31T05:30:18;10.43;;;6.72;;
22490;SDS011;11412;50.802;4.350;2022-10-31T05:32:47;9.68;;;6.38;;
22490;SDS011;11412;50.802;4.350;2022-10-31T05:35:18;10.98;;;7.32;;
22490;SDS011;11412;50.802;4.350;2022-10-31T05:37:45;10.18;;;7.13;;
22490;SDS011;11412;50.802;4.350;2022-10-31T05:40:12;9.00;;;6.85;;
22490;SDS011;11412;50.802;4.350;2022-10-31T05:42:39;9.50;;;7.30;;
22490;SDS011;11412;50.802;4.350;2022-10-31T05:45:06;12.23;;;7.53;;
22490;SDS011;11412;50.802;4.350;2022-10-31T05:47:33;8.18;;;6.88;;
22490;SDS011;11412;50.802;4.350;2022-10-31T05:49:59;14.48;;;7.25;;
22490;SDS011;11412;50.802;4.350;2022-10-31T05:52:24;13.00;;;7.63;;
22490;SDS011;11412;50.802;4.350;2022-10-31T05:54:50;13.05;;;7.90;;
22490;SDS011;11412;50.802;4.350;2022-10-31T05:57:15;13.00;;;7.78;;
22490;SDS011;11412;50.802;4.350;2022-10-31T05:59:41;15.88;;;8.20;;
22490;SDS011;11412;50.802;4.350;2022-10-31T06:02:07;12.02;;;7.72;;
22490;SDS011;11412;50.802;4.350;2022-10-31T06:04:32;12.73;;;7.57;;
22490;SDS011;11412;50.802;4.350;2022-10-31T06:06:58;13.63;;;7.75;;
22490;SDS011;11412;50.802;4.350;2022-10-31T06:09:23;14.40;;;8.18;;
22490;SDS011;11412;50.802;4.350;2022-10-31T06:11:49;12.93;;;7.47;;
22490;SDS011;11412;50.802;4.350;2022-10-31T06:14:14;12.23;;;8.15;;
22490;SDS011;11412;50.802;4.350;2022-10-31T06:16:40;14.52;;;7.97;;
22490;SDS011;11412;50.802;4.350;2022-10-31T06:19:06;13.00;;;8.18;;
22490;SDS011;11412;50.802;4.350;2022-10-31T06:21:31;13.57;;;7.75;;
22490;SDS011;11412;50.802;4.350;2022-10-31T06:23:57;12.90;;;8.18;;
22490;SDS011;11412;50.802;4.350;2022-10-31T06:26:22;15.43;;;8.35;;
22490;SDS011;11412;50.802;4.350;2022-10-31T06:28:48;10.30;;;7.80;;
22490;SDS011;11412;50.802;4.350;2022-10-31T06:31:14;13.90;;;8.18;;
22490;SDS011;11412;50.802;4.350;2022-10-31T06:33:42;15.63;;;8.88;;
22490;SDS011;11412;50.802;4.350;2022-10-31T06:36:08;16.00;;;9.10;;
22490;SDS011;11412;50.802;4.350;2022-10-31T06:38:34;12.98;;;7.97;;
22490;SDS011;11412;50.802;4.350;2022-10-31T06:41:03;14.27;;;8.73;;
22490;SDS011;11412;50.802;4.350;2022-10-31T06:43:29;15.38;;;8.85;;
22490;SDS011;11412;50.802;4.350;2022-10-31T06:45:55;13.15;;;8.38;;
22490;SDS011;11412;50.802;4.350;2022-10-31T06:48:21;13.15;;;8.55;;
22490;SDS011;11412;50.802;4.350;2022-10-31T06:50:47;13.23;;;9.82;;
22490;SDS011;11412;50.802;4.350;2022-10-31T06:53:12;15.38;;;9.77;;
22490;SDS011;11412;50.802;4.350;2022-10-31T06:55:39;16.85;;;10.45;;
22490;SDS011;11412;50.802;4.350;2022-10-31T06:58:05;17.48;;;9.57;;
22490;SDS011;11412;50.802;4.350;2022-10-31T07:00:33;11.20;;;8.52;;
22490;SDS011;11412;50.802;4.350;2022-10-31T07:03:00;13.82;;;8.55;;
22490;SDS011;11412;50.802;4.350;2022-10-31T07:05:30;17.00;;;9.40;;
22490;SDS011;11412;50.802;4.350;2022-10-31T07:08:00;15.70;;;10.00;;
22490;SDS011;11412;50.802;4.350;2022-10-31T07:10:28;19.45;;;10.32;;
22490;SDS011;11412;50.802;4.350;2022-10-31T07:12:56;14.43;;;9.27;;
22490;SDS011;11412;50.802;4.350;2022-10-31T07:15:27;20.38;;;9.27;;
22490;SDS011;11412;50.802;4.350;2022-10-31T07:17:54;21.20;;;9.70;;
22490;SDS011;11412;50.802;4.350;2022-10-31T07:20:26;15.95;;;8.85;;
22490;SDS011;11412;50.802;4.350;2022-10-31T07:22:52;13.23;;;8.45;;
22490;SDS011;11412;50.802;4.350;2022-10-31T07:25:17;18.00;;;9.07;;
22490;SDS011;11412;50.802;4.350;2022-10-31T07:27:43;12.32;;;9.15;;
22490;SDS011;11412;50.802;4.350;2022-10-31T07:30:09;17.52;;;8.73;;
22490;SDS011;11412;50.802;4.350;2022-10-31T07:32:46;17.48;;;9.25;;
22490;SDS011;11412;50.802;4.350;2022-10-31T07:35:14;14.60;;;8.65;;
22490;SDS011;11412;50.802;4.350;2022-10-31T07:37:41;15.18;;;8.93;;
22490;SDS011;11412;50.802;4.350;2022-10-31T07:40:07;13.27;;;8.68;;
22490;SDS011;11412;50.802;4.350;2022-10-31T07:42:43;14.25;;;9.48;;
22490;SDS011;11412;50.802;4.350;2022-10-31T07:45:11;16.10;;;9.05;;
22490;SDS011;11412;50.802;4.350;2022-10-31T07:47:41;14.25;;;9.05;;
22490;SDS011;11412;50.802;4.350;2022-10-31T07:50:08;16.48;;;8.77;;
22490;SDS011;11412;50.802;4.350;2022-10-31T07:52:35;13.15;;;8.40;;
22490;SDS011;11412;50.802;4.350;2022-10-31T07:55:02;12.55;;;8.18;;
22490;SDS011;11412;50.802;4.350;2022-10-31T07:57:28;12.85;;;8.57;;
22490;SDS011;11412;50.802;4.350;2022-10-31T07:59:54;13.18;;;7.15;;
22490;SDS011;11412;50.802;4.350;2022-10-31T08:02:20;11.25;;;7.47;;
22490;SDS011;11412;50.802;4.350;2022-10-31T08:04:45;9.43;;;6.88;;
22490;SDS011;11412;50.802;4.350;2022-10-31T08:07:11;13.40;;;7.28;;
22490;SDS011;11412;50.802;4.350;2022-10-31T08:09:37;9.50;;;7.00;;
22490;SDS011;11412;50.802;4.350;2022-10-31T08:12:03;12.25;;;6.13;;
22490;SDS011;11412;50.802;4.350;2022-10-31T08:14:29;15.45;;;6.72;;
22490;SDS011;11412;50.802;4.350;2022-10-31T08:16:54;10.65;;;5.93;;
22490;SDS011;11412;50.802;4.350;2022-10-31T08:19:20;7.22;;;6.00;;
22490;SDS011;11412;50.802;4.350;2022-10-31T08:21:45;9.48;;;5.55;;
22490;SDS011;11412;50.802;4.350;2022-10-31T08:24:11;10.50;;;5.85;;
22490;SDS011;11412;50.802;4.350;2022-10-31T08:26:37;11.95;;;6.25;;
22490;SDS011;11412;50.802;4.350;2022-10-31T08:29:03;8.38;;;5.47;;
22490;SDS011;11412;50.802;4.350;2022-10-31T08:31:29;14.45;;;5.95;;
22490;SDS011;11412;50.802;4.350;2022-10-31T08:33:54;7.55;;;6.15;;
22490;SDS011;11412;50.802;4.350;2022-10-31T08:36:20;6.00;;;5.40;;
22490;SDS011;11412;50.802;4.350;2022-10-31T08:38:46;10.73;;;5.80;;
22490;SDS011;11412;50.802;4.350;2022-10-31T08:41:13;9.80;;;6.63;;
22490;SDS011;11412;50.802;4.350;2022-10-31T08:43:39;11.10;;;6.30;;
22490;SDS011;11412;50.802;4.350;2022-10-31T08:46:05;11.68;;;6.63;;
22490;SDS011;11412;50.802;4.350;2022-10-31T08:48:31;15.70;;;7.03;;
22490;SDS011;11412;50.802;4.350;2022-10-31T08:50:57;8.10;;;6.35;;
22490;SDS011;11412;50.802;4.350;2022-10-31T08:53:24;10.10;;;7.10;;
22490;SDS011;11412;50.802;4.350;2022-10-31T08:55:50;9.80;;;5.82;;
22490;SDS011;11412;50.802;4.350;2022-10-31T08:58:16;9.05;;;6.13;;
22490;SDS011;11412;50.802;4.350;2022-10-31T09:00:44;11.85;;;6.55;;
22490;SDS011;11412;50.802;4.350;2022-10-31T09:03:15;10.27;;;6.25;;
22490;SDS011;11412;50.802;4.350;2022-10-31T09:05:42;6.38;;;5.53;;
22490;SDS011;11412;50.802;4.350;2022-10-31T09:08:09;8.75;;;6.10;;
22490;SDS011;11412;50.802;4.350;2022-10-31T09:10:35;9.65;;;5.95;;
22490;SDS011;11412;50.802;4.350;2022-10-31T09:13:04;7.43;;;6.18;;
22490;SDS011;11412;50.802;4.350;2022-10-31T09:15:35;7.50;;;5.80;;
22490;SDS011;11412;50.802;4.350;2022-10-31T09:18:03;7.43;;;5.57;;
22490;SDS011;11412;50.802;4.350;2022-10-31T09:20:30;9.88;;;5.85;;
22490;SDS011;11412;50.802;4.350;2022-10-31T09:23:01;12.20;;;5.97;;
22490;SDS011;11412;50.802;4.350;2022-10-31T09:25:37;12.05;;;5.57;;
22490;SDS011;11412;50.802;4.350;2022-10-31T09:28:04;12.68;;;5.93;;
22490;SDS011;11412;50.802;4.350;2022-10-31T09:30:32;7.45;;;5.15;;
22490;SDS011;11412;50.802;4.350;2022-10-31T09:33:00;8.23;;;5.60;;
22490;SDS011;11412;50.802;4.350;2022-10-31T09:35:28;8.40;;;5.55;;
22490;SDS011;11412;50.802;4.350;2022-10-31T09:38:04;9.30;;;4.97;;
22490;SDS011;11412;50.802;4.350;2022-10-31T09:40:32;8.02;;;5.78;;
22490;SDS011;11412;50.802;4.350;2022-10-31T09:43:16;8.93;;;5.25;;
22490;SDS011;11412;50.802;4.350;2022-10-31T09:45:54;8.27;;;5.55;;
22490;SDS011;11412;50.802;4.350;2022-10-31T09:48:51;9.25;;;5.03;;
22490;SDS011;11412;50.802;4.350;2022-10-31T09:51:30;9.90;;;5.20;;
22490;SDS011;11412;50.802;4.350;2022-10-31T09:54:17;9.73;;;5.20;;
22490;SDS011;11412;50.802;4.350;2022-10-31T09:56:46;6.43;;;5.05;;
22490;SDS011;11412;50.802;4.350;2022-10-31T09:59:16;8.70;;;5.43;;
22490;SDS011;11412;50.802;4.350;2022-10-31T10:01:56;8.98;;;5.65;;
22490;SDS011;11412;50.802;4.350;2022-10-31T10:07:10;14.32;;;6.85;;
22490;SDS011;11412;50.802;4.350;2022-10-31T10:09:43;9.02;;;5.97;;
22490;SDS011;11412;50.802;4.350;2022-10-31T10:12:36;10.38;;;5.53;;
22490;SDS011;11412;50.802;4.350;2022-10-31T10:23:42;11.40;;;6.45;;
22490;SDS011;11412;50.802;4.350;2022-10-31T10:26:20;10.20;;;6.40;;
22490;SDS011;11412;50.802;4.350;2022-10-31T10:28:49;12.30;;;6.30;;
22490;SDS011;11412;50.802;4.350;2022-10-31T10:31:31;13.05;;;6.80;;
22490;SDS011;11412;50.802;4.350;2022-10-31T10:34:11;13.93;;;7.13;;
22490;SDS011;11412;50.802;4.350;2022-10-31T10:36:47;13.43;;;7.40;;
22490;SDS011;11412;50.802;4.350;2022-10-31T10:39:32;12.80;;;6.60;;
22490;SDS011;11412;50.802;4.350;2022-10-31T10:42:12;13.48;;;6.78;;
22490;SDS011;11412;50.802;4.350;2022-10-31T10:44:58;14.27;;;7.85;;
22490;SDS011;11412;50.802;4.350;2022-10-31T10:47:45;12.07;;;7.13;;
22490;SDS011;11412;50.802;4.350;2022-10-31T10:50:26;15.13;;;8.18;;
22490;SDS011;11412;50.802;4.350;2022-10-31T10:53:12;14.43;;;8.23;;
22490;SDS011;11412;50.802;4.350;2022-10-31T10:56:00;10.27;;;6.95;;
22490;SDS011;11412;50.802;4.350;2022-10-31T10:58:29;11.48;;;7.50;;
22490;SDS011;11412;50.802;4.350;2022-10-31T11:00:55;15.13;;;7.28;;
22490;SDS011;11412;50.802;4.350;2022-10-31T11:03:20;12.05;;;7.20;;
22490;SDS011;11412;50.802;4.350;2022-10-31T11:05:53;15.13;;;7.30;;
22490;SDS011;11412;50.802;4.350;2022-10-31T11:08:27;17.33;;;8.23;;
22490;SDS011;11412;50.802;4.350;2022-10-31T11:11:04;17.98;;;7.97;;
22490;SDS011;11412;50.802;4.350;2022-10-31T11:13:52;12.00;;;6.60;;
22490;SDS011;11412;50.802;4.350;2022-10-31T11:16:33;16.40;;;7.35;;
22490;SDS011;11412;50.802;4.350;2022-10-31T11:19:06;13.02;;;7.53;;
22490;SDS011;11412;50.802;4.350;2022-10-31T11:21:41;13.55;;;7.30;;
22490;SDS011;11412;50.802;4.350;2022-10-31T11:26:35;12.23;;;6.60;;
22490;SDS011;11412;50.802;4.350;2022-10-31T11:29:03;12.57;;;6.70;;
22490;SDS011;11412;50.802;4.350;2022-10-31T11:31:30;16.90;;;7.07;;
22490;SDS011;11412;50.802;4.350;2022-10-31T11:34:06;14.80;;;7.03;;
22490;SDS011;11412;50.802;4.350;2022-10-31T11:36:39;16.02;;;7.15;;
22490;SDS011;11412;50.802;4.350;2022-10-31T11:39:16;12.85;;;6.60;;
22490;SDS011;11412;50.802;4.350;2022-10-31T11:41:46;15.93;;;7.50;;
22490;SDS011;11412;50.802;4.350;2022-10-31T11:49:57;12.35;;;7.35;;
22490;SDS011;11412;50.802;4.350;2022-10-31T11:52:16;18.83;;;7.40;;
22490;SDS011;11412;50.802;4.350;2022-10-31T11:57:28;15.85;;;6.75;;
22490;SDS011;11412;50.802;4.350;2022-10-31T11:59:57;12.90;;;6.68;;
22490;SDS011;11412;50.802;4.350;2022-10-31T12:02:25;16.80;;;7.03;;
22490;SDS011;11412;50.802;4.350;2022-10-31T12:04:55;11.20;;;6.40;;
22490;SDS011;11412;50.802;4.350;2022-10-31T12:07:26;18.40;;;7.10;;
22490;SDS011;11412;50.802;4.350;2022-10-31T12:09:52;14.80;;;6.43;;
22490;SDS011;11412;50.802;4.350;2022-10-31T12:17:32;17.63;;;6.70;;
22490;SDS011;11412;50.802;4.350;2022-10-31T12:31:15;8.23;;;5.30;;
22490;SDS011;11412;50.802;4.350;2022-10-31T12:33:53;10.32;;;5.18;;
22490;SDS011;11412;50.802;4.350;2022-10-31T12:37:02;12.32;;;5.47;;
22490;SDS011;11412;50.802;4.350;2022-10-31T12:39:55;10.05;;;5.38;;
22490;SDS011;11412;50.802;4.350;2022-10-31T12:45:28;10.90;;;5.28;;
22490;SDS011;11412;50.802;4.350;2022-10-31T12:47:59;11.55;;;5.03;;
22490;SDS011;11412;50.802;4.350;2022-10-31T12:53:12;9.18;;;5.22;;
22490;SDS011;11412;50.802;4.350;2022-10-31T12:59:28;12.60;;;5.00;;
22490;SDS011;11412;50.802;4.350;2022-10-31T13:02:00;9.88;;;4.63;;
22490;SDS011;11412;50.802;4.350;2022-10-31T13:07:55;10.82;;;4.80;;
22490;SDS011;11412;50.802;4.350;2022-10-31T13:10:25;12.25;;;4.78;;
22490;SDS011;11412;50.802;4.350;2022-10-31T13:12:53;12.48;;;4.88;;
22490;SDS011;11412;50.802;4.350;2022-10-31T13:15:24;15.45;;;4.53;;
22490;SDS011;11412;50.802;4.350;2022-10-31T13:17:57;14.30;;;5.05;;
22490;SDS011;11412;50.802;4.350;2022-10-31T13:20:28;11.82;;;5.07;;
22490;SDS011;11412;50.802;4.350;2022-10-31T13:23:37;14.32;;;5.28;;
22490;SDS011;11412;50.802;4.350;2022-10-31T13:25:57;12.52;;;4.90;;
22490;SDS011;11412;50.802;4.350;2022-10-31T13:31:00;11.30;;;5.17;;
22490;SDS011;11412;50.802;4.350;2022-10-31T13:33:30;8.65;;;4.75;;
22490;SDS011;11412;50.802;4.350;2022-10-31T13:41:56;11.18;;;4.90;;
22490;SDS011;11412;50.802;4.350;2022-10-31T13:44:29;9.30;;;4.22;;
22490;SDS011;11412;50.802;4.350;2022-10-31T13:47:00;15.10;;;4.95;;
22490;SDS011;11412;50.802;4.350;2022-10-31T13:54:36;13.70;;;5.00;;
22490;SDS011;11412;50.802;4.350;2022-10-31T13:57:07;11.65;;;4.70;;
22490;SDS011;11412;50.802;4.350;2022-10-31T13:59:51;13.88;;;5.15;;
22490;SDS011;11412;50.802;4.350;2022-10-31T14:02:44;8.38;;;4.80;;
22490;SDS011;11412;50.802;4.350;2022-10-31T14:08:04;11.52;;;4.93;;
22490;SDS011;11412;50.802;4.350;2022-10-31T14:10:38;10.77;;;4.70;;
22490;SDS011;11412;50.802;4.350;2022-10-31T14:13:30;11.77;;;4.65;;
22490;SDS011;11412;50.802;4.350;2022-10-31T14:16:03;12.02;;;4.20;;
22490;SDS011;11412;50.802;4.350;2022-10-31T14:18:39;16.35;;;4.30;;
22490;SDS011;11412;50.802;4.350;2022-10-31T14:21:15;11.10;;;5.50;;
22490;SDS011;11412;50.802;4.350;2022-10-31T14:23:50;13.43;;;4.22;;
22490;SDS011;11412;50.802;4.350;2022-10-31T14:26:21;7.65;;;3.65;;
22490;SDS011;11412;50.802;4.350;2022-10-31T14:28:59;8.65;;;4.22;;
22490;SDS011;11412;50.802;4.350;2022-10-31T14:31:39;9.50;;;4.30;;
22490;SDS011;11412;50.802;4.350;2022-10-31T14:34:41;7.30;;;3.65;;
22490;SDS011;11412;50.802;4.350;2022-10-31T14:37:30;13.90;;;4.05;;
22490;SDS011;11412;50.802;4.350;2022-10-31T14:43:12;10.60;;;4.05;;
22490;SDS011;11412;50.802;4.350;2022-10-31T14:46:01;9.82;;;4.07;;
22490;SDS011;11412;50.802;4.350;2022-10-31T14:51:33;14.10;;;4.07;;
22490;SDS011;11412;50.802;4.350;2022-10-31T14:54:00;14.18;;;4.43;;
22490;SDS011;11412;50.802;4.350;2022-10-31T14:56:28;11.82;;;4.35;;
22490;SDS011;11412;50.802;4.350;2022-10-31T14:58:56;11.05;;;3.88;;
22490;SDS011;11412;50.802;4.350;2022-10-31T15:01:29;9.63;;;4.32;;
22490;SDS011;11412;50.802;4.350;2022-10-31T15:03:58;10.35;;;4.03;;
22490;SDS011;11412;50.802;4.350;2022-10-31T15:06:30;10.23;;;4.25;;
22490;SDS011;11412;50.802;4.350;2022-10-31T15:09:05;9.10;;;4.00;;
22490;SDS011;11412;50.802;4.350;2022-10-31T15:11:45;10.98;;;3.70;;
22490;SDS011;11412;50.802;4.350;2022-10-31T15:14:20;10.55;;;4.15;;
22490;SDS011;11412;50.802;4.350;2022-10-31T15:16:51;11.02;;;4.45;;
22490;SDS011;11412;50.802;4.350;2022-10-31T15:19:20;14.02;;;5.00;;
22490;SDS011;11412;50.802;4.350;2022-10-31T15:21:50;12.20;;;4.40;;
22490;SDS011;11412;50.802;4.350;2022-10-31T15:24:17;9.02;;;4.10;;
22490;SDS011;11412;50.802;4.350;2022-10-31T15:26:47;9.75;;;4.05;;
22490;SDS011;11412;50.802;4.350;2022-10-31T15:29:19;12.65;;;4.90;;
22490;SDS011;11412;50.802;4.350;2022-10-31T15:31:57;9.63;;;4.60;;
22490;SDS011;11412;50.802;4.350;2022-10-31T15:34:38;8.95;;;4.47;;
22490;SDS011;11412;50.802;4.350;2022-10-31T15:37:12;10.95;;;5.10;;
22490;SDS011;11412;50.802;4.350;2022-10-31T15:39:40;12.48;;;5.53;;
22490;SDS011;11412;50.802;4.350;2022-10-31T15:45:05;11.20;;;4.78;;
22490;SDS011;11412;50.802;4.350;2022-10-31T15:48:12;11.98;;;5.20;;
22490;SDS011;11412;50.802;4.350;2022-10-31T15:50:50;11.50;;;5.85;;
22490;SDS011;11412;50.802;4.350;2022-10-31T15:55:53;16.88;;;6.05;;
22490;SDS011;11412;50.802;4.350;2022-10-31T15:58:21;15.30;;;5.50;;
22490;SDS011;11412;50.802;4.350;2022-10-31T16:01:06;17.48;;;5.68;;
22490;SDS011;11412;50.802;4.350;2022-10-31T16:04:04;9.63;;;5.93;;
22490;SDS011;11412;50.802;4.350;2022-10-31T16:06:55;12.05;;;5.88;;
22490;SDS011;11412;50.802;4.350;2022-10-31T16:09:50;13.13;;;6.00;;
22490;SDS011;11412;50.802;4.350;2022-10-31T16:12:17;15.68;;;5.90;;
22490;SDS011;11412;50.802;4.350;2022-10-31T16:14:43;15.32;;;6.25;;
22490;SDS011;11412;50.802;4.350;2022-10-31T16:17:16;16.52;;;6.20;;
22490;SDS011;11412;50.802;4.350;2022-10-31T16:22:32;18.20;;;6.93;;
22490;SDS011;11412;50.802;4.350;2022-10-31T16:25:04;10.75;;;5.57;;
22490;SDS011;11412;50.802;4.350;2022-10-31T16:27:39;12.75;;;5.90;;
22490;SDS011;11412;50.802;4.350;2022-10-31T16:33:01;11.75;;;6.13;;
22490;SDS011;11412;50.802;4.350;2022-10-31T16:35:27;11.77;;;5.95;;
22490;SDS011;11412;50.802;4.350;2022-10-31T16:38:01;15.45;;;5.75;;
22490;SDS011;11412;50.802;4.350;2022-10-31T16:40:26;11.52;;;5.63;;
22490;SDS011;11412;50.802;4.350;2022-10-31T16:42:52;14.80;;;4.75;;
22490;SDS011;11412;50.802;4.350;2022-10-31T16:45:22;13.48;;;4.90;;
22490;SDS011;11412;50.802;4.350;2022-10-31T16:47:49;9.88;;;4.60;;